METAR

EDDW 140320Z 30008KT 4500 BR OVC003 08/07 Q1006

Location

EDDW
Bremen Airport

Time

140320Z
14th of the Month
03:20 Zulu / UTC
19 minutes ago

Wind

30008KT
Wind Direction 300°
West-Northwest
Wind Speed 8 knots

Visibility

4500
4500 meters

Weather

BR
Mist

Clouds

OVC003
Overcast Clouds (88) at 300 ft  

Temperature

08/07
Temperature 8 °C
Dew Point 7 °C

Air Pressure

Q1006
1006 hPa